createdAt,value
2019-04-14T00:09:33.633Z,93071.38
2019-04-14T00:25:08.566Z,92952.17
2019-04-14T00:40:45.355Z,93047.06
2019-04-14T00:56:19.448Z,93032.05
2019-04-14T01:11:53.459Z,93031.97
2019-04-14T01:27:27.780Z,93038.91
2019-04-14T01:43:01.794Z,93029.48
2019-04-14T01:58:38.175Z,93028.04
2019-04-14T02:14:12.511Z,93024.02
2019-04-14T02:29:47.252Z,93017.59
2019-04-14T02:45:51.372Z,93012.45
2019-04-14T03:01:26.032Z,93015.09
2019-04-14T03:17:16.181Z,93016.06
2019-04-14T03:32:52.990Z,93029.90
2019-04-14T03:48:42.848Z,93029.46
2019-04-14T04:03:18.036Z,93036.84
2019-04-14T04:19:00.858Z,93051.16
2019-04-14T04:34:31.635Z,93053.45
2019-04-14T04:50:06.535Z,93074.33
2019-04-14T05:05:53.566Z,93060.13
2019-04-14T05:21:27.765Z,93065.95
2019-04-14T05:37:00.850Z,93069.03
2019-04-14T05:52:33.974Z,93060.84
2019-04-14T06:08:06.685Z,93070.72
2019-04-14T06:23:40.581Z,93069.91
2019-04-14T06:39:32.110Z,93075.16
2019-04-14T06:55:04.904Z,93085.58
2019-04-14T07:10:37.952Z,93095.87
2019-04-14T07:26:10.949Z,93097.05
2019-04-14T07:41:46.886Z,93111.55
2019-04-14T07:57:25.540Z,93098.30
2019-04-14T08:12:58.566Z,93086.09
2019-04-14T08:28:31.638Z,93075.95
2019-04-14T09:00:35.142Z,93056.14
2019-04-14T09:16:08.488Z,93049.81
2019-04-14T09:31:42.235Z,93057.50
2019-04-14T09:47:15.711Z,93056.25
2019-04-14T10:02:48.876Z,93052.99
2019-04-14T10:18:21.942Z,93040.68
2019-04-14T10:33:54.863Z,93040.56
2019-04-14T10:49:28.032Z,93037.71
2019-04-14T11:05:00.935Z,93032.03
2019-04-14T11:20:33.842Z,93046.61
2019-04-14T11:52:19.126Z,93043.26
2019-04-14T12:07:53.922Z,93045.22
2019-04-14T12:23:27.755Z,93034.50
2019-04-14T12:39:00.986Z,93024.22
2019-04-14T12:54:35.042Z,93009.77
2019-04-14T13:10:07.834Z,93008.61
2019-04-14T13:25:41.120Z,93000.96
2019-04-14T13:41:14.097Z,92992.95
2019-04-14T13:56:47.293Z,93003.36
2019-04-14T14:28:29.203Z,93011.73
2019-04-14T14:44:02.885Z,93025.18
2019-04-14T14:59:35.778Z,93030.73
2019-04-14T15:15:08.843Z,93044.66
2019-04-14T15:30:43.094Z,93058.71
2019-04-14T15:46:17.135Z,93051.58
2019-04-14T16:18:17.596Z,93075.36
2019-04-14T16:33:56.831Z,93085.77
2019-04-14T16:49:30.660Z,93100.48
2019-04-14T17:05:03.875Z,93110.36
2019-04-14T17:20:49.210Z,93121.89
2019-04-14T17:36:30.592Z,93142.67
2019-04-14T18:24:42.632Z,93176.86
2019-04-14T18:40:16.170Z,93174.69
2019-04-14T18:55:52.099Z,93193.83
2019-04-14T19:11:42.192Z,93197.67
2019-04-14T19:27:15.546Z,93212.58
2019-04-14T19:42:48.633Z,93222.03
2019-04-14T19:58:21.767Z,93216.80
2019-04-14T20:13:54.772Z,93230.27
2019-04-14T20:29:31.969Z,93235.63
2019-04-14T20:45:05.795Z,93237.37
2019-04-14T21:00:39.776Z,93242.70
2019-04-14T21:32:44.742Z,93244.90
2019-04-14T21:48:17.958Z,93247.64
2019-04-14T22:20:03.181Z,93243.70
2019-04-14T22:35:37.672Z,93239.90
2019-04-14T22:51:10.696Z,93233.81
2019-04-14T23:06:47.409Z,93227.58
2019-04-14T23:38:36.582Z,93239.23
2019-04-14T23:54:09.803Z,93231.52
